createdAt,value
2022-09-04T00:00:17.816Z,1013.23
2022-09-04T00:05:08.703Z,1013.34
2022-09-04T00:10:08.545Z,1013.32
2022-09-04T00:15:08.232Z,1013.41
2022-09-04T00:20:07.933Z,1013.49
2022-09-04T00:25:08.617Z,1013.5
2022-09-04T00:30:08.294Z,1013.5
2022-09-04T00:35:08.008Z,1013.61
2022-09-04T00:40:07.684Z,1013.62
2022-09-04T00:45:09.863Z,1013.62
2022-09-04T00:50:08.292Z,1013.62
2022-09-04T00:55:08.057Z,1013.72
2022-09-04T01:00:07.753Z,1013.72
2022-09-04T01:05:08.433Z,1013.8
2022-09-04T01:10:07.649Z,1013.84
2022-09-04T01:15:08.359Z,1013.84
2022-09-04T01:20:08.076Z,1013.93
2022-09-04T01:25:07.771Z,1013.85
2022-09-04T01:30:08.463Z,1013.85
2022-09-04T01:35:08.163Z,1013.95
2022-09-04T01:40:07.879Z,1013.93
2022-09-04T01:45:08.582Z,1014.02
2022-09-04T01:50:08.297Z,1013.98
2022-09-04T01:55:08.011Z,1013.95
2022-09-04T02:00:07.732Z,1013.93
2022-09-04T02:05:08.685Z,1014.03
2022-09-04T02:10:08.455Z,1014.11
2022-09-04T02:15:08.164Z,1014.11
2022-09-04T02:20:17.909Z,1014.15
2022-09-04T02:25:08.568Z,1014.2
2022-09-04T02:30:08.247Z,1014.32
2022-09-04T02:35:07.949Z,1014.23
2022-09-04T02:40:07.653Z,1014.29
2022-09-04T02:45:08.340Z,1014.32
2022-09-04T02:50:08.044Z,1014.34
2022-09-04T02:55:07.759Z,1014.48
2022-09-04T03:00:08.492Z,1014.46
2022-09-04T03:05:08.217Z,1014.47
2022-09-04T03:10:07.931Z,1014.39
2022-09-04T03:15:18.651Z,1014.59
2022-09-04T03:20:08.384Z,1014.57
2022-09-04T03:25:08.071Z,1014.54
2022-09-04T03:30:07.789Z,1014.56
2022-09-04T03:35:08.479Z,1014.56
2022-09-04T03:40:18.156Z,1014.61
2022-09-04T03:45:07.840Z,1014.63
2022-09-04T03:50:08.524Z,1014.6
2022-09-04T03:55:08.242Z,1014.68
2022-09-04T04:00:07.937Z,1014.75
2022-09-04T04:05:02.868Z,1014.76
2022-09-04T04:10:02.799Z,1014.74
2022-09-04T04:15:02.635Z,1014.8
2022-09-04T04:20:02.608Z,1014.86
2022-09-04T04:25:02.483Z,1014.85
2022-09-04T04:30:02.417Z,1014.94
2022-09-04T04:35:02.305Z,1015.01
2022-09-04T04:40:02.174Z,1014.94
2022-09-04T04:45:12.000Z,1015.16
2022-09-04T04:50:01.827Z,1015.09
2022-09-04T04:55:02.584Z,1015.2
2022-09-04T05:00:02.366Z,1015.16
2022-09-04T05:05:02.130Z,1015.38
2022-09-04T05:10:01.863Z,1015.32
2022-09-04T05:15:02.612Z,1015.45
2022-09-04T05:20:02.458Z,1015.45
2022-09-04T05:25:02.177Z,1015.51
2022-09-04T05:30:01.917Z,1015.52
2022-09-04T05:35:02.650Z,1015.56
2022-09-04T05:40:02.234Z,1015.65
2022-09-04T05:45:02.057Z,1015.64
2022-09-04T05:50:01.831Z,1015.76
2022-09-04T05:55:12.673Z,1015.83
2022-09-04T06:00:02.594Z,1015.95
2022-09-04T06:05:02.353Z,1016.02
2022-09-04T06:10:02.073Z,1016.1
2022-09-04T06:15:01.800Z,1016.11
2022-09-04T06:20:02.662Z,1016.09
2022-09-04T06:25:02.481Z,1016.13
2022-09-04T06:30:04.313Z,1016.19
2022-09-04T06:35:02.365Z,1016.19
2022-09-04T06:40:02.244Z,1016.22
2022-09-04T06:45:02.128Z,1016.21
2022-09-04T06:50:01.714Z,1016.3
2022-09-04T06:55:02.576Z,1016.28
2022-09-04T07:00:02.702Z,1016.25
2022-09-04T07:05:02.621Z,1016.37
2022-09-04T07:10:03.530Z,1016.31
2022-09-04T07:15:01.998Z,1016.25
2022-09-04T07:20:01.843Z,1016.32
2022-09-04T07:25:02.572Z,1016.33
2022-09-04T07:30:09.087Z,1016.28
2022-09-04T07:35:01.934Z,1016.36
2022-09-04T07:40:01.821Z,1016.43
2022-09-04T07:45:02.704Z,1016.58
2022-09-04T07:50:02.526Z,1016.57
2022-09-04T07:55:02.259Z,1016.58
2022-09-04T08:00:01.993Z,1016.55
2022-09-04T08:05:01.766Z,1016.59
2022-09-04T08:10:02.372Z,1016.65
2022-09-04T08:15:02.107Z,1016.71
2022-09-04T08:20:01.829Z,1016.71
2022-09-04T08:25:12.560Z,1016.72
2022-09-04T08:30:02.300Z,1016.76
2022-09-04T08:35:02.012Z,1016.79
2022-09-04T08:40:01.861Z,1016.82
2022-09-04T08:45:02.619Z,1016.83
2022-09-04T08:50:07.385Z,1016.83
2022-09-04T08:55:02.159Z,1016.86
2022-09-04T09:00:01.912Z,1016.93
2022-09-04T09:05:02.623Z,1016.91
2022-09-04T09:10:08.943Z,1016.85
2022-09-04T09:15:02.794Z,1016.92
2022-09-04T09:20:02.823Z,1017.04
2022-09-04T09:25:02.771Z,1017.03
2022-09-04T09:30:02.585Z,1016.9
2022-09-04T09:35:02.437Z,1016.95
2022-09-04T09:40:02.699Z,1016.89
2022-09-04T09:45:02.614Z,1016.78
2022-09-04T09:50:02.535Z,1016.82
2022-09-04T09:55:02.469Z,1016.88
2022-09-04T10:00:02.297Z,1016.75
2022-09-04T10:05:12.074Z,1016.67
2022-09-04T10:10:01.869Z,1016.7
2022-09-04T10:15:02.697Z,1016.7
2022-09-04T10:20:02.514Z,1016.76
2022-09-04T10:25:12.333Z,1016.74
2022-09-04T10:30:02.484Z,1016.73
2022-09-04T10:35:02.329Z,1016.79
2022-09-04T10:40:04.291Z,1016.8
2022-09-04T10:45:02.171Z,1016.87
2022-09-04T10:50:02.020Z,1016.83
2022-09-04T10:55:01.734Z,1016.88
2022-09-04T11:00:05.993Z,1016.82
2022-09-04T11:05:01.861Z,1016.81
2022-09-04T11:10:02.660Z,1016.82
2022-09-04T11:15:02.371Z,1016.84
2022-09-04T11:20:16.167Z,1016.76
2022-09-04T11:25:02.147Z,1016.74
2022-09-04T11:30:02.568Z,1016.77
2022-09-04T11:35:05.584Z,1016.81
2022-09-04T11:40:02.440Z,1016.84
2022-09-04T11:45:02.177Z,1016.71
2022-09-04T11:50:02.005Z,1016.72
2022-09-04T11:55:02.429Z,1016.72
2022-09-04T12:00:02.270Z,1016.77
2022-09-04T12:05:02.196Z,1016.66
2022-09-04T12:10:02.133Z,1016.65
2022-09-04T12:15:02.104Z,1016.62
2022-09-04T12:20:08.034Z,1016.71
2022-09-04T12:25:02.165Z,1016.71
2022-09-04T12:30:02.058Z,1016.72
2022-09-04T12:35:02.014Z,1016.75
2022-09-04T12:40:01.939Z,1016.78
2022-09-04T12:45:11.929Z,1016.75
2022-09-04T12:50:02.708Z,1016.78
2022-09-04T12:55:02.522Z,1016.9
2022-09-04T13:00:02.357Z,1016.84
2022-09-04T13:05:02.331Z,1016.77
2022-09-04T13:10:05.251Z,1016.76
2022-09-04T13:15:02.047Z,1016.86
2022-09-04T13:20:01.806Z,1016.82
2022-09-04T13:25:02.536Z,1016.89
2022-09-04T13:30:04.582Z,1016.91
2022-09-04T13:35:02.404Z,1016.88
2022-09-04T13:40:02.242Z,1016.85
2022-09-04T13:45:02.180Z,1016.86
2022-09-04T13:50:02.018Z,1016.83
2022-09-04T13:55:11.722Z,1016.88
2022-09-04T14:00:02.485Z,1016.84
2022-09-04T14:05:02.296Z,1016.91
2022-09-04T14:10:02.028Z,1016.95
2022-09-04T14:15:01.737Z,1016.93
2022-09-04T14:20:02.492Z,1016.95
2022-09-04T14:25:06.667Z,1016.91
2022-09-04T14:30:11.927Z,1016.91
2022-09-04T14:35:02.931Z,1016.87
2022-09-04T14:40:02.806Z,1016.81
2022-09-04T14:45:02.682Z,1016.81
2022-09-04T14:50:02.529Z,1016.8
2022-09-04T14:55:02.366Z,1016.89
2022-09-04T15:00:12.151Z,1016.83
2022-09-04T15:05:02.112Z,1016.83
2022-09-04T15:10:02.058Z,1016.83
2022-09-04T15:15:01.933Z,1016.91
2022-09-04T15:20:02.876Z,1016.84
2022-09-04T15:25:01.930Z,1016.72
2022-09-04T15:30:12.629Z,1016.86
2022-09-04T15:35:02.703Z,1016.73
2022-09-04T15:40:02.695Z,1016.72
2022-09-04T15:45:02.653Z,1016.83
2022-09-04T15:50:02.601Z,1016.72
2022-09-04T15:55:02.427Z,1016.8
2022-09-04T16:00:02.250Z,1016.77
2022-09-04T16:05:04.651Z,1016.73
2022-09-04T16:10:02.528Z,1016.71
2022-09-04T16:15:02.353Z,1016.74
2022-09-04T16:20:02.072Z,1016.7
2022-09-04T16:25:01.808Z,1016.7
2022-09-04T16:30:01.923Z,1016.76
2022-09-04T16:35:02.692Z,1016.74
2022-09-04T16:40:02.637Z,1016.77
2022-09-04T16:45:02.450Z,1016.79
2022-09-04T16:50:12.174Z,1016.85
2022-09-04T16:55:01.907Z,1016.79
2022-09-04T17:00:02.620Z,1016.79
2022-09-04T17:05:02.368Z,1016.82
2022-09-04T17:10:02.113Z,1016.79
2022-09-04T17:15:01.831Z,1016.83
2022-09-04T17:20:02.745Z,1016.88
2022-09-04T17:28:59.892Z,1016.86
2022-09-04T17:30:02.365Z,1016.83
2022-09-04T17:40:33.268Z,1016.91
2022-09-04T17:40:49.875Z,1016.82
2022-09-04T17:45:02.861Z,1016.92
2022-09-04T17:50:03.009Z,1016.92
2022-09-04T17:55:11.786Z,1016.87
2022-09-04T18:00:02.553Z,1016.92
2022-09-04T18:05:02.358Z,1017.0
2022-09-04T18:10:02.212Z,1016.93
2022-09-04T18:15:33.203Z,1017.08
2022-09-04T18:20:02.470Z,1017.15
2022-09-04T18:25:16.061Z,1017.15
2022-09-04T18:34:29.594Z,1017.29
2022-09-04T18:37:24.546Z,1017.36
2022-09-04T18:40:02.151Z,1017.37
2022-09-04T18:50:30.451Z,1017.57
2022-09-04T18:50:46.232Z,1017.43
2022-09-04T18:55:02.400Z,1017.55
2022-09-04T19:00:08.964Z,1017.61
2022-09-04T19:05:02.158Z,1017.67
2022-09-04T19:10:01.999Z,1017.67
2022-09-04T19:15:01.826Z,1017.69
2022-09-04T19:20:02.731Z,1017.69
2022-09-04T19:25:01.793Z,1017.71
2022-09-04T19:30:17.529Z,1017.75
2022-09-04T19:35:05.268Z,1017.83
2022-09-04T19:40:02.066Z,1017.86
2022-09-04T19:46:13.884Z,1017.86
2022-09-04T19:53:18.472Z,1017.91
2022-09-04T19:55:24.889Z,1017.93
2022-09-04T20:00:31.044Z,1017.89
2022-09-04T20:05:02.175Z,1017.92
2022-09-04T20:10:02.079Z,1018.01
2022-09-04T20:15:01.907Z,1018.07
2022-09-04T20:20:02.750Z,1018.06
2022-09-04T20:25:07.227Z,1018.05
2022-09-04T20:30:02.030Z,1017.99
2022-09-04T20:35:13.285Z,1018.06
2022-09-04T20:40:02.089Z,1018.08
2022-09-04T20:47:48.047Z,1018.12
2022-09-04T20:52:54.181Z,1018.2
2022-09-04T20:55:02.388Z,1018.2
2022-09-04T21:03:09.097Z,1018.11
2022-09-04T21:05:02.168Z,1018.18
2022-09-04T21:10:02.856Z,1018.29
2022-09-04T21:15:01.790Z,1018.17
2022-09-04T21:20:06.558Z,1018.16
2022-09-04T21:25:02.476Z,1018.24
2022-09-04T21:30:02.292Z,1018.21
2022-09-04T21:35:14.938Z,1018.2
2022-09-04T21:40:20.237Z,1018.18
2022-09-04T21:45:08.414Z,1018.17
2022-09-04T21:50:08.127Z,1018.23
2022-09-04T21:58:44.030Z,1018.23
2022-09-04T22:02:35.693Z,1018.24
2022-09-04T22:05:07.661Z,1018.29
2022-09-04T22:13:29.103Z,1018.25
2022-09-04T22:15:09.523Z,1018.29
2022-09-04T22:20:08.259Z,1018.37
2022-09-04T22:25:07.963Z,1018.29
2022-09-04T22:30:07.659Z,1018.24
2022-09-04T22:35:08.360Z,1018.32
2022-09-04T22:40:08.198Z,1018.28
2022-09-04T22:45:09.896Z,1018.37
2022-09-04T22:50:08.011Z,1018.28
2022-09-04T22:55:23.361Z,1018.28
2022-09-04T23:01:00.510Z,1018.26
2022-09-04T23:05:18.201Z,1018.27
2022-09-04T23:13:54.632Z,1018.34
2022-09-04T23:15:09.108Z,1018.36
2022-09-04T23:26:34.109Z,1018.39
2022-09-04T23:26:37.587Z,1018.38
2022-09-04T23:30:08.332Z,1018.44
2022-09-04T23:35:14.654Z,1018.4
2022-09-04T23:40:08.015Z,1018.42
2022-09-04T23:45:07.796Z,1018.36
2022-09-04T23:50:08.491Z,1018.35
2022-09-04T23:55:08.172Z,1018.31
